Rechercher aéroport 
image banner adimage banner adimage banner ad
image banner ad

EKKU - Kirkja

Situé à Kirkja, Faroe Islands

ICAO - , IATA -

Données fournies par Airmate  

Information générale

Coordonnées: N62°19'2" W6°18'48"
Élévation : 135 feet MSL.
Variation magnétique : -8° East
Voir autres Aéroports à (unassigned)

Données opérationnelles

Special qualification required
Heure actuelle UTC:
Heure actuelle locale:
Météo à : EKVG - Vagar ( 57 km )
METAR: EKVG 070050Z AUTO 16021KT 7000 -RA OVC007/// 05/04 Q0979 RMK OVC009/// WIND SKEID 15034KT
TAF: TAF EKVG 061421Z 0615/0621 11013KT 9999 -SHRA SCT010CB BKN017 BECMG 0615/0616 21018KT TEMPO 0615/0621 2000 SHRA BKN005CB BECMG 0616/0618 23025G35KT BECMG 0619/0621 22035G45KT
Voir NOTAMs / SUP AIP / TFR affectant cet aéroport [VIEW]
Fréquences de communication: [VIEW]

Pistes:

Coordonnées de l'aéroport

Adresse: Kirkja Faroe Islands

Vue satellite de EKKU